Time;durP1;ratioP1;P1;durP2;ratioP2;P2;SDS_P1;SDS_P2;PMS_P1;PMS_P2;Temp;Humidity;BMP_temperature;BMP_pressure;BME280_temperature;BME280_humidity;BME280_pressure;Samples;Min_cycle;Max_cycle;Signal;HPM_P1;HPM_P2
2021/04/11 00:01:30;;;;;;;13.20;6.03;;;9.20;69.10;;;;;;4958005;29;20195;-89
2021/04/11 00:03:56;;;;;;;11.07;6.03;;;9.20;69.10;;;;;;4957404;29;20203;-89
2021/04/11 00:06:22;;;;;;;15.50;6.90;;;9.20;70.10;;;;;;4957896;28;20187;-89
2021/04/11 00:08:48;;;;;;;13.57;6.07;;;9.10;69.80;;;;;;4941583;28;20189;-89
2021/04/11 00:11:13;;;;;;;11.07;6.27;;;9.10;70.10;;;;;;4959048;29;20219;-89
2021/04/11 00:13:40;;;;;;;11.70;5.47;;;9.10;70.30;;;;;;4957912;29;20191;-89
2021/04/11 00:16:06;;;;;;;15.10;7.17;;;9.00;71.30;;;;;;4958654;28;20211;-89
2021/04/11 00:18:32;;;;;;;12.40;6.07;;;9.00;71.50;;;;;;4960476;28;20226;-89
2021/04/11 00:20:59;;;;;;;9.40;5.80;;;8.90;72.30;;;;;;4962120;29;20583;-88
2021/04/11 00:23:26;;;;;;;13.07;7.07;;;8.90;72.60;;;;;;4958125;29;20191;-89
2021/04/11 00:25:53;;;;;;;9.83;5.77;;;8.90;72.80;;;;;;4957881;29;20203;-89
2021/04/11 00:28:19;;;;;;;10.63;5.37;;;8.80;73.60;;;;;;4972936;28;20179;-87
2021/04/11 00:30:46;;;;;;;15.00;5.87;;;8.80;74.20;;;;;;4981075;28;20182;-87
2021/04/11 00:33:39;;;;;;;11.13;7.13;;;8.80;74.20;;;;;;4972084;28;20206;-87
2021/04/11 00:36:16;;;;;;;14.73;5.33;;;8.70;75.00;;;;;;4958156;28;20175;-88
2021/04/11 00:38:43;;;;;;;9.17;5.43;;;8.70;75.80;;;;;;4957140;28;20283;-88
2021/04/11 00:41:15;;;;;;;8.93;5.20;;;8.70;76.10;;;;;;4958023;28;20178;-88
2021/04/11 00:43:42;;;;;;;8.77;5.13;;;8.70;76.40;;;;;;4958095;29;20190;-88
2021/04/11 00:46:40;;;;;;;9.27;5.57;;;8.60;77.00;;;;;;4957049;28;20215;-87
2021/04/11 00:49:12;;;;;;;11.23;5.33;;;8.60;77.50;;;;;;4958738;28;20166;-88
2021/04/11 00:51:38;;;;;;;12.50;4.97;;;8.60;78.20;;;;;;4955703;29;20237;-87
2021/04/11 00:54:06;;;;;;;10.43;5.60;;;8.60;77.80;;;;;;4957402;28;20636;-88
2021/04/11 00:56:33;;;;;;;9.27;5.20;;;8.60;78.60;;;;;;4957032;28;20171;-88
2021/04/11 00:59:01;;;;;;;13.43;5.30;;;8.60;79.20;;;;;;4956401;29;20176;-89
2021/04/11 01:01:27;;;;;;;8.83;5.27;;;8.60;79.40;;;;;;4957159;28;20274;-88
2021/04/11 01:03:52;;;;;;;8.37;4.90;;;8.60;80.20;;;;;;4957057;28;20210;-89
2021/04/11 01:06:28;;;;;;;11.07;4.90;;;8.50;80.50;;;;;;4957030;28;20171;-88
2021/04/11 01:08:55;;;;;;;8.10;5.20;;;8.50;81.00;;;;;;4955746;29;20187;-87
2021/04/11 01:11:25;;;;;;;10.77;4.80;;;8.50;81.30;;;;;;4956782;28;20301;-88
2021/04/11 01:13:56;;;;;;;9.77;5.13;;;8.50;82.90;;;;;;4957084;28;20266;-88
2021/04/11 01:16:23;;;;;;;11.20;5.27;;;8.50;82.10;;;;;;4955771;29;20342;-87
2021/04/11 01:18:51;;;;;;;12.60;5.20;;;8.50;82.50;;;;;;4956961;28;20201;-88
2021/04/11 01:21:53;;;;;;;10.10;5.23;;;8.50;83.00;;;;;;4956902;28;20190;-88
2021/04/11 01:24:40;;;;;;;7.60;4.90;;;8.50;83.50;;;;;;4955132;28;20194;-86
2021/04/11 01:27:09;;;;;;;12.50;4.93;;;8.50;84.20;;;;;;4956622;28;20223;-88
2021/04/11 01:29:35;;;;;;;9.13;4.80;;;8.40;84.20;;;;;;4956368;28;20180;-87
2021/04/11 01:32:04;;;;;;;10.07;4.53;;;8.40;85.60;;;;;;4956571;28;20277;-88
2021/04/11 01:34:30;;;;;;;11.70;5.87;;;8.40;86.10;;;;;;4957014;28;20199;-88
2021/04/11 01:36:57;;;;;;;11.33;5.00;;;8.30;86.30;;;;;;4954777;28;20206;-88
2021/04/11 01:39:31;;;;;;;11.97;5.77;;;8.40;87.40;;;;;;4956298;28;20318;-87
2021/04/11 01:41:57;;;;;;;19.03;6.73;;;8.30;89.00;;;;;;4955503;29;20636;-87
2021/04/11 01:44:29;;;;;;;13.83;6.83;;;8.20;90.40;;;;;;4956106;28;20179;-87
2021/04/11 01:46:56;;;;;;;14.03;7.00;;;8.10;91.40;;;;;;4956754;28;20183;-87
2021/04/11 01:49:23;;;;;;;12.57;5.77;;;8.00;92.70;;;;;;4955218;28;20179;-87
2021/04/11 01:52:01;;;;;;;11.70;5.80;;;7.90;93.60;;;;;;4956425;28;20297;-88
2021/04/11 01:54:32;;;;;;;16.10;6.30;;;7.80;94.30;;;;;;4955981;28;20708;-88
2021/04/11 01:56:58;;;;;;;17.63;6.43;;;7.80;95.30;;;;;;4955979;28;20775;-89
2021/04/11 01:59:26;;;;;;;12.40;5.77;;;7.70;96.20;;;;;;4954958;29;20256;-87
2021/04/11 02:01:52;;;;;;;13.50;6.87;;;7.70;96.90;;;;;;4956652;28;20204;-89
2021/04/11 02:04:19;;;;;;;13.93;6.00;;;7.60;98.80;;;;;;4955116;29;20202;-89
2021/04/11 02:06:55;;;;;;;13.47;6.10;;;7.60;99.10;;;;;;4956572;28;20180;-89
2021/04/11 02:09:27;;;;;;;13.07;6.57;;;7.50;99.90;;;;;;4956056;28;20226;-89
2021/04/11 02:11:54;;;;;;;10.33;5.53;;;7.50;99.90;;;;;;4956150;28;20687;-88
2021/04/11 02:14:20;;;;;;;11.03;6.27;;;7.50;99.90;;;;;;4956259;28;20183;-89
2021/04/11 02:16:46;;;;;;;13.60;5.70;;;7.50;99.90;;;;;;4956391;28;20211;-89
2021/04/11 02:19:15;;;;;;;14.27;5.80;;;7.40;99.90;;;;;;4954210;29;20203;-89
2021/04/11 02:21:44;;;;;;;10.63;6.10;;;7.40;99.90;;;;;;4955900;28;20206;-88
2021/04/11 02:24:11;;;;;;;11.13;5.80;;;7.50;99.90;;;;;;4956140;28;20202;-89
2021/04/11 02:26:39;;;;;;;14.70;5.77;;;7.50;99.90;;;;;;4956174;28;20205;-89
2021/04/11 02:29:12;;;;;;;9.17;5.10;;;7.50;99.90;;;;;;4955289;29;20214;-89
2021/04/11 02:31:38;;;;;;;10.03;5.43;;;7.50;99.90;;;;;;4956244;28;20211;-89
2021/04/11 02:34:07;;;;;;;9.17;5.03;;;7.50;99.90;;;;;;4955216;28;20671;-88
2021/04/11 02:36:37;;;;;;;12.20;5.37;;;7.50;99.90;;;;;;4955811;28;20183;-88
2021/04/11 02:39:09;;;;;;;12.30;5.10;;;7.50;99.90;;;;;;4956455;28;20186;-88
2021/04/11 02:41:37;;;;;;;9.13;5.00;;;7.50;99.90;;;;;;4955772;28;20189;-88
2021/04/11 02:44:03;;;;;;;8.60;5.10;;;7.50;99.90;;;;;;4956066;28;20293;-90
2021/04/11 02:46:31;;;;;;;12.27;5.33;;;7.50;99.90;;;;;;4954708;28;20211;-87
2021/04/11 02:48:57;;;;;;;11.60;5.70;;;7.50;99.90;;;;;;4955789;28;20235;-87
2021/04/11 02:51:27;;;;;;;9.00;5.03;;;7.50;99.90;;;;;;4955714;29;20203;-88
2021/04/11 02:53:55;;;;;;;13.77;6.37;;;7.50;99.90;;;;;;4954304;29;20198;-89
2021/04/11 02:56:21;;;;;;;15.73;7.77;;;7.50;99.90;;;;;;4954628;29;20518;-89
2021/04/11 02:58:47;;;;;;;10.70;5.40;;;7.50;99.90;;;;;;4955614;28;20198;-88
2021/04/11 03:01:18;;;;;;;13.43;6.13;;;7.40;99.90;;;;;;4955830;28;20186;-88
2021/04/11 03:03:45;;;;;;;9.23;5.90;;;7.50;99.90;;;;;;4958025;28;20203;-87
2021/04/11 03:06:20;;;;;;;10.77;5.63;;;7.50;99.90;;;;;;4960543;28;20530;-87
2021/04/11 03:08:49;;;;;;;7.47;5.07;;;7.50;99.90;;;;;;4959562;28;20703;-87
2021/04/11 03:11:51;;;;;;;10.00;5.40;;;7.50;99.90;;;;;;4959078;28;20180;-87
2021/04/11 03:14:20;;;;;;;10.97;6.67;;;7.50;99.90;;;;;;4918644;29;20254;-87
2021/04/11 03:16:47;;;;;;;12.07;6.10;;;7.50;99.90;;;;;;4959346;28;20721;-88
2021/04/11 03:19:22;;;;;;;9.50;5.77;;;7.50;99.90;;;;;;4958493;28;20183;-88
2021/04/11 03:21:47;;;;;;;8.37;5.00;;;7.50;99.90;;;;;;4959043;28;20187;-87
2021/04/11 03:24:13;;;;;;;11.40;4.57;;;7.50;99.90;;;;;;4957507;29;20184;-89
2021/04/11 03:26:53;;;;;;;10.73;5.33;;;7.50;99.90;;;;;;4957080;29;20266;-88
2021/04/11 03:29:33;;;;;;;14.57;4.60;;;7.50;99.90;;;;;;4958850;28;20266;-88
2021/04/11 03:32:02;;;;;;;9.67;5.13;;;7.50;99.90;;;;;;4958261;28;20307;-88
2021/04/11 03:34:31;;;;;;;10.20;5.07;;;7.50;99.90;;;;;;4958712;29;20234;-88
2021/04/11 03:37:00;;;;;;;11.87;5.23;;;7.50;99.90;;;;;;4957243;29;20206;-88
2021/04/11 03:39:27;;;;;;;11.57;5.00;;;7.50;99.90;;;;;;4959038;28;20175;-87
2021/04/11 03:41:55;;;;;;;11.23;4.77;;;7.40;99.90;;;;;;4958519;28;20187;-88
2021/04/11 03:44:24;;;;;;;8.37;4.87;;;7.60;99.90;;;;;;4957370;29;20188;-89
2021/04/11 03:47:14;;;;;;;7.77;4.77;;;7.60;99.90;;;;;;4958447;28;20248;-87
2021/04/11 03:49:42;;;;;;;11.63;4.50;;;7.60;99.90;;;;;;4957326;28;20199;-89
2021/04/11 03:52:39;;;;;;;7.37;4.50;;;7.60;99.90;;;;;;4958364;28;20230;-89
2021/04/11 03:55:10;;;;;;;10.17;4.93;;;7.60;99.90;;;;;;4945535;28;20199;-89
2021/04/11 03:57:47;;;;;;;8.63;5.13;;;7.60;99.90;;;;;;4958504;28;20171;-90
2021/04/11 04:00:15;;;;;;;12.20;5.27;;;7.60;99.90;;;;;;4958210;28;20175;-88
2021/04/11 04:02:45;;;;;;;12.87;4.97;;;7.60;99.90;;;;;;4958032;28;20180;-88
2021/04/11 04:05:16;;;;;;;7.87;5.00;;;7.60;99.90;;;;;;4956830;29;20552;-87
2021/04/11 04:07:49;;;;;;;7.37;4.87;;;7.50;99.90;;;;;;4957912;28;20321;-87
2021/04/11 04:10:18;;;;;;;7.77;5.30;;;7.50;99.90;;;;;;4956802;28;20244;-88
2021/04/11 04:13:03;;;;;;;11.97;5.57;;;7.50;99.90;;;;;;4957619;28;20210;-88
2021/04/11 04:15:31;;;;;;;23.33;16.80;;;7.50;99.90;;;;;;4957810;29;20187;-88
2021/04/11 04:18:21;;;;;;;8.63;5.80;;;7.50;99.90;;;;;;4957692;29;20186;-88
2021/04/11 04:21:19;;;;;;;12.17;5.77;;;7.50;99.90;;;;;;4957382;29;20258;-88
2021/04/11 04:24:06;;;;;;;10.87;5.37;;;7.50;99.90;;;;;;4956882;29;20202;-87
2021/04/11 04:26:39;;;;;;;11.80;6.00;;;7.50;99.90;;;;;;4957794;29;20283;-87
2021/04/11 04:29:04;;;;;;;9.13;5.90;;;7.60;99.90;;;;;;4957530;29;20183;-88
2021/04/11 04:31:57;;;;;;;9.07;5.17;;;7.60;99.90;;;;;;4957752;28;20211;-88
2021/04/11 04:34:29;;;;;;;10.73;5.23;;;7.60;99.90;;;;;;4956807;29;20214;-88
2021/04/11 04:37:19;;;;;;;13.93;6.57;;;7.60;99.90;;;;;;4957808;29;20641;-88
2021/04/11 04:40:00;;;;;;;11.43;5.53;;;7.70;99.90;;;;;;4957047;28;20163;-86
2021/04/11 04:42:38;;;;;;;8.80;5.63;;;7.70;99.90;;;;;;4956043;29;20274;-88
2021/04/11 04:45:08;;;;;;;10.40;5.43;;;7.70;99.90;;;;;;4957161;28;20182;-88
2021/04/11 04:48:01;;;;;;;10.70;5.57;;;7.80;99.90;;;;;;4954130;29;20201;-88
2021/04/11 04:50:36;;;;;;;10.43;5.80;;;7.80;99.90;;;;;;4957144;29;20253;-88
2021/04/11 04:53:22;;;;;;;11.47;5.90;;;7.90;99.90;;;;;;4956764;28;20202;-88
2021/04/11 04:55:53;;;;;;;9.50;5.70;;;7.90;99.90;;;;;;4956769;28;20203;-87
2021/04/11 04:58:33;;;;;;;9.43;5.67;;;8.00;99.90;;;;;;4956052;28;20273;-88
2021/04/11 05:01:22;;;;;;;12.50;5.90;;;8.10;99.90;;;;;;4949338;29;20193;-88
2021/04/11 05:03:51;;;;;;;8.70;5.67;;;8.20;99.90;;;;;;4956017;29;20675;-88
2021/04/11 05:06:36;;;;;;;9.13;5.77;;;8.20;99.90;;;;;;4955899;28;20191;-87
2021/04/11 05:09:36;;;;;;;14.90;5.13;;;8.30;99.90;;;;;;4955936;28;20226;-87
2021/04/11 05:12:27;;;;;;;11.60;5.63;;;8.40;99.90;;;;;;4947703;29;20218;-88
2021/04/11 05:15:06;;;;;;;10.23;5.20;;;8.50;99.90;;;;;;4956846;28;20674;-88
2021/04/11 05:18:14;;;;;;;9.70;5.07;;;8.50;99.90;;;;;;4958337;29;20174;-87
2021/04/11 05:20:45;;;;;;;9.77;4.90;;;8.70;99.90;;;;;;4956609;28;20610;-89
2021/04/11 05:23:36;;;;;;;11.47;5.70;;;8.90;99.90;;;;;;4956065;28;20226;-89
2021/04/11 05:26:11;;;;;;;15.07;5.23;;;9.00;99.90;;;;;;4957644;28;20184;-89
2021/04/11 05:29:02;;;;;;;13.30;5.40;;;9.10;99.90;;;;;;4956406;28;20183;-88
2021/04/11 05:31:31;;;;;;;8.33;4.77;;;9.20;99.90;;;;;;4962018;28;20258;-89
2021/04/11 05:33:58;;;;;;;9.63;4.57;;;9.30;99.90;;;;;;4971619;28;20190;-88
2021/04/11 05:36:35;;;;;;;8.77;4.97;;;9.40;99.90;;;;;;4972405;28;20184;-88
2021/04/11 05:39:13;;;;;;;13.40;4.80;;;9.60;99.90;;;;;;4968255;28;20236;-87
2021/04/11 05:41:46;;;;;;;8.80;4.40;;;9.70;98.20;;;;;;4948838;28;20282;-88
2021/04/11 05:44:34;;;;;;;10.87;4.50;;;9.70;97.50;;;;;;4958546;28;20189;-89
2021/04/11 05:47:20;;;;;;;7.27;4.40;;;9.80;96.60;;;;;;4946749;28;20207;-91
2021/04/11 05:49:50;;;;;;;9.73;4.60;;;9.80;96.20;;;;;;4931243;28;20206;-93
2021/04/11 05:52:23;;;;;;;9.53;4.17;;;9.90;96.00;;;;;;4945477;28;20214;-92
2021/04/11 05:54:53;;;;;;;7.93;5.30;;;9.90;95.70;;;;;;4953065;28;20195;-94
2021/04/11 05:57:26;;;;;;;7.83;4.50;;;10.00;95.20;;;;;;4953651;28;20183;-94
2021/04/11 06:00:04;;;;;;;9.13;4.70;;;10.10;94.50;;;;;;4946500;28;20184;-94
2021/04/11 06:02:48;;;;;;;7.77;4.57;;;10.20;94.10;;;;;;4940333;28;20657;-95
2021/04/11 06:05:32;;;;;;;8.43;4.40;;;10.30;93.90;;;;;;4952996;28;20190;-92
2021/04/11 06:08:29;;;;;;;6.93;4.33;;;10.40;93.00;;;;;;4952487;28;20243;-92
2021/04/11 06:11:16;;;;;;;6.63;4.07;;;10.50;92.00;;;;;;4949101;28;20236;-93
2021/04/11 06:14:10;;;;;;;7.73;5.40;;;10.50;90.60;;;;;;4953609;28;20206;-94
2021/04/11 06:16:37;;;;;;;8.47;4.67;;;10.80;90.30;;;;;;4943169;28;20198;-95
2021/04/11 06:19:07;;;;;;;10.23;4.90;;;10.70;89.60;;;;;;4951672;28;20212;-94
2021/04/11 06:21:51;;;;;;;7.43;4.33;;;10.90;88.60;;;;;;4957950;28;20191;-87
2021/04/11 06:24:34;;;;;;;10.50;5.50;;;10.90;85.20;;;;;;4945455;28;20192;-87
2021/04/11 06:27:04;;;;;;;10.37;5.10;;;11.00;85.20;;;;;;4952051;28;20202;-87
2021/04/11 06:29:38;;;;;;;9.10;4.87;;;11.10;85.80;;;;;;4952578;28;20187;-88
2021/04/11 06:32:12;;;;;;;8.50;4.87;;;11.20;85.20;;;;;;4951085;28;20214;-87
2021/04/11 06:34:58;;;;;;;8.20;4.97;;;11.50;83.70;;;;;;4952975;28;20646;-86
2021/04/11 06:37:26;;;;;;;9.80;4.97;;;11.70;81.30;;;;;;4946020;28;20183;-87
2021/04/11 06:39:51;;;;;;;7.60;5.03;;;11.80;79.50;;;;;;4954155;28;20191;-86
2021/04/11 06:42:26;;;;;;;8.80;4.80;;;12.00;78.10;;;;;;4941178;29;20202;-84
2021/04/11 06:45:24;;;;;;;13.77;4.63;;;12.10;78.30;;;;;;4955752;28;20203;-86
2021/04/11 06:48:19;;;;;;;13.75;4.35;;;12.20;76.80;;;;;;4944779;28;20195;-85
2021/04/11 06:51:16;;;;;;;9.50;5.07;;;12.30;75.50;;;;;;4939353;28;20180;-88
2021/04/11 06:53:50;;;;;;;10.02;4.88;;;12.40;74.60;;;;;;4940875;28;20665;-87
2021/04/11 06:56:33;;;;;;;8.70;5.07;;;12.40;74.70;;;;;;4944739;29;20242;-86
2021/04/11 06:59:22;;;;;;;10.57;4.38;;;12.40;75.30;;;;;;4950206;28;20183;-86
2021/04/11 07:02:25;;;;;;;11.63;5.32;;;12.50;75.20;;;;;;4949945;28;20278;-86
2021/04/11 07:05:32;;;;;;;11.55;5.60;;;12.50;75.50;;;;;;4957816;28;20198;-87
2021/04/11 07:08:19;;;;;;;10.80;5.40;;;12.50;75.20;;;;;;4925476;28;20198;-86
2021/04/11 07:11:21;;;;;;;10.60;4.65;;;12.50;74.70;;;;;;4952562;28;20707;-88
2021/04/11 07:13:52;;;;;;;15.43;5.15;;;12.70;74.70;;;;;;4942975;28;20187;-88
2021/04/11 07:16:38;;;;;;;10.93;4.35;;;13.00;73.60;;;;;;4935811;28;20278;-87
2021/04/11 07:19:45;;;;;;;9.32;4.80;;;13.20;71.70;;;;;;4936067;28;20180;-86
2021/04/11 07:22:35;;;;;;;7.28;4.22;;;13.40;70.30;;;;;;4950605;28;20672;-87
2021/04/11 07:25:23;;;;;;;11.15;3.90;;;13.60;70.40;;;;;;4954745;28;20671;-87
2021/04/11 07:28:28;;;;;;;13.38;4.38;;;13.80;68.10;;;;;;4945511;28;20191;-87
2021/04/11 07:31:12;;;;;;;9.60;3.85;;;13.90;65.50;;;;;;4941024;28;20180;-88
2021/04/11 07:34:01;;;;;;;9.57;4.80;;;14.00;67.20;;;;;;4936291;28;20278;-87
2021/04/11 07:36:58;;;;;;;8.35;4.57;;;14.10;65.80;;;;;;4950815;28;20194;-87
2021/04/11 07:39:50;;;;;;;13.38;4.38;;;14.20;66.10;;;;;;4939915;28;20191;-87
2021/04/11 07:42:41;;;;;;;10.82;4.45;;;14.40;64.80;;;;;;4941902;28;20590;-86
2021/04/11 07:45:30;;;;;;;8.38;4.15;;;14.50;62.70;;;;;;4954050;28;20190;-87
2021/04/11 07:48:30;;;;;;;7.45;4.28;;;14.50;62.60;;;;;;4953835;28;20187;-89
2021/04/11 07:51:21;;;;;;;7.93;3.90;;;14.60;63.50;;;;;;4934128;28;20199;-90
2021/04/11 07:54:09;;;;;;;9.00;5.03;;;14.80;63.00;;;;;;4968097;28;20218;-89
2021/04/11 07:56:47;;;;;;;9.57;4.18;;;14.90;60.70;;;;;;4958346;28;20194;-91
2021/04/11 07:59:33;;;;;;;9.93;5.13;;;14.80;60.40;;;;;;4943735;28;20179;-87
2021/04/11 08:02:17;;;;;;;8.13;4.22;;;15.00;60.50;;;;;;4955575;28;20262;-90
2021/04/11 08:05:26;;;;;;;8.52;4.68;;;15.00;59.70;;;;;;4954797;28;20187;-89
2021/04/11 08:08:04;;;;;;;7.60;4.20;;;15.10;61.50;;;;;;4954493;28;20238;-90
2021/04/11 08:11:00;;;;;;;12.75;4.85;;;15.30;59.60;;;;;;4949619;28;20289;-90
2021/04/11 08:13:29;;;;;;;8.90;4.18;;;15.40;59.40;;;;;;4955170;28;20214;-89
2021/04/11 08:15:57;;;;;;;11.88;4.57;;;15.40;60.20;;;;;;4952559;28;20242;-87
2021/04/11 08:18:49;;;;;;;7.25;4.15;;;15.70;60.20;;;;;;4951764;28;20197;-87
2021/04/11 08:21:27;;;;;;;6.35;3.50;;;15.90;57.90;;;;;;4957717;28;20198;-87
2021/04/11 08:24:37;;;;;;;15.80;4.35;;;15.90;57.20;;;;;;4950199;28;20179;-89
2021/04/11 08:27:27;;;;;;;8.98;4.00;;;16.00;56.00;;;;;;4926458;29;20282;-88
2021/04/11 08:30:01;;;;;;;8.43;4.68;;;16.10;55.40;;;;;;4955906;28;20191;-87
2021/04/11 08:32:42;;;;;;;10.05;3.88;;;16.20;55.90;;;;;;4955264;28;20226;-86
2021/04/11 08:35:29;;;;;;;7.43;3.72;;;16.30;55.50;;;;;;4949687;28;20183;-86
2021/04/11 08:38:32;;;;;;;11.85;4.82;;;16.30;55.60;;;;;;4954967;28;20187;-85
2021/04/11 08:41:17;;;;;;;6.50;3.28;;;16.50;54.60;;;;;;4968986;28;20269;-88
2021/04/11 08:44:04;;;;;;;10.38;3.50;;;16.60;55.00;;;;;;4959441;28;20263;-90
2021/04/11 08:46:50;;;;;;;7.50;3.60;;;16.60;54.20;;;;;;4951525;28;20192;-87
2021/04/11 08:49:22;;;;;;;7.63;4.22;;;16.70;54.50;;;;;;4951890;28;20267;-88
2021/04/11 08:52:08;;;;;;;9.98;3.42;;;16.80;54.90;;;;;;4944103;28;20275;-88
2021/04/11 08:55:21;;;;;;;7.28;3.10;;;16.80;54.20;;;;;;4961257;29;20199;-88
2021/04/11 08:58:02;;;;;;;8.68;2.60;;;17.00;53.40;;;;;;4907028;29;20260;-88
2021/04/11 09:00:54;;;;;;;8.95;3.40;;;17.00;53.10;;;;;;4955999;28;20192;-91
2021/04/11 09:03:45;;;;;;;8.93;3.28;;;17.00;53.60;;;;;;4940248;28;20752;-90
2021/04/11 09:06:27;;;;;;;10.73;3.30;;;17.00;53.10;;;;;;4943729;28;20184;-90
2021/04/11 09:09:15;;;;;;;7.20;2.85;;;17.10;53.00;;;;;;4952049;28;20794;-88
2021/04/11 09:11:50;;;;;;;7.32;3.20;;;17.20;53.70;;;;;;4956290;28;20219;-88
2021/04/11 09:14:34;;;;;;;5.00;2.97;;;17.30;53.40;;;;;;4954085;28;20294;-88
2021/04/11 09:17:34;;;;;;;5.90;3.20;;;17.40;53.30;;;;;;4955923;28;20191;-89
2021/04/11 09:20:12;;;;;;;11.55;3.38;;;17.50;53.10;;;;;;4941528;28;20191;-88
2021/04/11 09:22:56;;;;;;;7.55;3.22;;;17.50;53.10;;;;;;4956222;28;20258;-87
2021/04/11 09:25:27;;;;;;;6.38;3.20;;;17.50;52.50;;;;;;4955041;28;20270;-86
2021/04/11 09:28:19;;;;;;;9.65;3.47;;;17.50;53.20;;;;;;4954613;28;20187;-86
2021/04/11 09:31:06;;;;;;;8.07;2.90;;;17.70;53.20;;;;;;4942020;28;20653;-85
2021/04/11 09:34:04;;;;;;;5.82;2.72;;;17.80;53.20;;;;;;4948749;28;20211;-87
2021/04/11 09:36:48;;;;;;;6.22;2.65;;;18.00;52.90;;;;;;4953785;28;20194;-88
2021/04/11 09:39:33;;;;;;;6.15;3.05;;;17.90;53.30;;;;;;4954695;28;20261;-85
2021/04/11 09:42:05;;;;;;;7.25;2.85;;;18.10;52.70;;;;;;4951673;28;20585;-88
2021/04/11 09:45:02;;;;;;;7.35;3.42;;;18.10;53.30;;;;;;4948151;28;20187;-88
2021/04/11 09:47:56;;;;;;;9.82;2.90;;;18.20;52.80;;;;;;4954736;28;20190;-88
2021/04/11 09:50:44;;;;;;;6.50;2.88;;;18.40;51.80;;;;;;4951299;28;20673;-88
2021/04/11 09:53:47;;;;;;;5.05;2.85;;;18.40;52.00;;;;;;4955861;28;20262;-87
2021/04/11 09:56:40;;;;;;;9.20;2.97;;;18.50;52.30;;;;;;4935482;28;20191;-85
2021/04/11 09:59:08;;;;;;;8.88;2.60;;;18.50;51.50;;;;;;4952782;28;20199;-86
2021/04/11 10:01:47;;;;;;;5.85;2.70;;;18.50;51.00;;;;;;4949898;28;20246;-85
2021/04/11 10:05:01;;;;;;;10.18;3.85;;;18.50;50.00;;;;;;4949637;28;20183;-87
2021/04/11 10:07:41;;;;;;;8.07;2.90;;;18.60;49.60;;;;;;4944380;28;20179;-87
2021/04/11 10:10:32;;;;;;;9.02;2.97;;;18.80;50.00;;;;;;4945491;28;20283;-86
2021/04/11 10:13:50;;;;;;;5.20;3.13;;;18.80;49.60;;;;;;4953504;29;20234;-88
2021/04/11 10:16:22;;;;;;;7.22;2.85;;;18.90;49.70;;;;;;4918231;28;20617;-87
2021/04/11 10:19:17;;;;;;;9.10;2.65;;;19.10;50.30;;;;;;4953940;28;20195;-87
2021/04/11 10:22:11;;;;;;;7.88;2.80;;;19.20;49.40;;;;;;4943867;28;20275;-86
2021/04/11 10:24:51;;;;;;;6.60;3.35;;;19.30;48.90;;;;;;4951361;28;20277;-86
2021/04/11 10:27:38;;;;;;;6.93;2.70;;;19.20;49.70;;;;;;4950733;29;20720;-88
2021/04/11 10:34:14;;;;;;;2.83;2.13;;;19.50;48.20;;;;;;4942056;29;20635;-86
2021/04/11 10:36:54;;;;;;;3.90;2.53;;;19.50;47.80;;;;;;4894569;29;20286;-86
2021/04/11 10:39:20;;;;;;;9.13;2.67;;;19.40;47.20;;;;;;4932354;29;20188;-86
2021/04/11 10:42:10;;;;;;;10.88;2.60;;;19.50;47.20;;;;;;4917570;29;20528;-86
2021/04/11 10:45:21;;;;;;;6.78;3.00;;;19.70;46.90;;;;;;4933509;29;20195;-87
2021/04/11 10:48:18;;;;;;;7.40;2.45;;;19.70;47.80;;;;;;4920556;29;20283;-86
2021/04/11 10:50:50;;;;;;;8.20;3.03;;;20.00;47.00;;;;;;4921647;29;20196;-84
2021/04/11 10:53:46;;;;;;;5.57;2.08;;;20.20;46.30;;;;;;4953192;28;20276;-85
2021/04/11 10:56:12;;;;;;;2.83;2.10;;;20.40;46.20;;;;;;4899443;29;20192;-85
2021/04/11 10:59:08;;;;;;;9.77;3.08;;;20.40;43.30;;;;;;4922143;29;20180;-86
2021/04/11 11:02:05;;;;;;;6.85;2.50;;;20.20;44.30;;;;;;4936403;29;20180;-87
2021/04/11 11:05:00;;;;;;;5.75;2.20;;;20.20;45.80;;;;;;4934955;29;20184;-86
2021/04/11 11:08:02;;;;;;;11.07;2.63;;;20.50;46.10;;;;;;4918538;29;20685;-85
2021/04/11 11:11:05;;;;;;;4.65;2.47;;;20.70;44.20;;;;;;4937520;29;20254;-88
2021/04/11 11:13:59;;;;;;;5.55;2.58;;;20.70;44.50;;;;;;4953910;29;20215;-88
2021/04/11 11:16:36;;;;;;;9.57;2.17;;;20.80;45.20;;;;;;4954828;29;20179;-85
2021/04/11 11:19:27;;;;;;;6.55;2.50;;;20.90;44.10;;;;;;4957706;29;20163;-87
2021/04/11 11:22:11;;;;;;;7.05;2.58;;;20.80;44.20;;;;;;4956894;28;20203;-85
2021/04/11 11:25:04;;;;;;;12.98;2.65;;;20.80;44.40;;;;;;4960025;29;20195;-84
2021/04/11 11:28:07;;;;;;;5.57;2.58;;;20.70;43.90;;;;;;4966166;28;20203;-84
2021/04/11 11:30:34;;;;;;;7.03;2.42;;;20.50;44.80;;;;;;4958145;29;20182;-85
2021/04/11 11:33:12;;;;;;;8.40;2.47;;;20.70;44.90;;;;;;4963687;28;20217;-86
2021/04/11 11:36:02;;;;;;;5.63;2.70;;;20.80;43.60;;;;;;4965841;28;20171;-83
2021/04/11 11:38:50;;;;;;;4.05;2.20;;;20.60;44.90;;;;;;4957222;29;20217;-84
2021/04/11 11:41:26;;;;;;;11.07;2.78;;;20.70;44.30;;;;;;4956887;29;20184;-86
2021/04/11 11:44:16;;;;;;;7.85;2.53;;;20.70;43.50;;;;;;4957658;28;20179;-88
2021/04/11 11:46:54;;;;;;;9.75;3.35;;;20.70;43.40;;;;;;4957340;28;20179;-87
2021/04/11 11:49:28;;;;;;;6.20;2.75;;;20.80;43.40;;;;;;4957375;29;20186;-87
2021/04/11 11:52:14;;;;;;;2.70;1.98;;;20.90;43.80;;;;;;4957273;28;20285;-86
2021/04/11 11:55:01;;;;;;;4.20;2.53;;;20.90;42.90;;;;;;4957865;28;20168;-88
2021/04/11 11:57:51;;;;;;;4.97;2.28;;;20.70;42.00;;;;;;4957090;28;20190;-88
2021/04/11 12:00:18;;;;;;;3.80;2.53;;;20.60;42.20;;;;;;4957646;29;20637;-87
2021/04/11 12:03:18;;;;;;;5.43;2.50;;;20.50;43.00;;;;;;4957119;29;20641;-84
2021/04/11 12:06:12;;;;;;;6.20;2.05;;;20.50;42.90;;;;;;4955976;29;20215;-86
2021/04/11 12:09:06;;;;;;;9.50;2.42;;;20.30;42.70;;;;;;4948201;29;20290;-88
2021/04/11 12:11:31;;;;;;;9.48;2.50;;;20.40;43.70;;;;;;4956985;29;20196;-86
2021/04/11 12:14:10;;;;;;;5.93;2.38;;;20.60;43.30;;;;;;4957735;28;20183;-85
2021/04/11 12:17:02;;;;;;;5.68;2.40;;;20.60;42.90;;;;;;4959580;28;20181;-87
2021/04/11 12:19:36;;;;;;;4.13;2.08;;;20.80;42.80;;;;;;4954945;29;20189;-85
2021/04/11 12:22:08;;;;;;;6.80;2.53;;;20.80;41.50;;;;;;4956440;29;20186;-85
2021/04/11 12:24:56;;;;;;;3.78;2.10;;;21.10;42.30;;;;;;4956807;28;20179;-86
2021/04/11 12:27:34;;;;;;;3.67;1.90;;;21.10;41.60;;;;;;4957060;28;20322;-85
2021/04/11 12:30:02;;;;;;;4.47;2.50;;;21.40;41.10;;;;;;4956492;28;20655;-85
2021/04/11 12:32:53;;;;;;;10.65;2.90;;;21.40;40.70;;;;;;4956483;28;20211;-86
2021/04/11 12:35:44;;;;;;;6.80;2.60;;;21.60;40.70;;;;;;4928919;28;20215;-85
2021/04/11 12:38:41;;;;;;;7.53;2.72;;;21.60;41.70;;;;;;4954944;29;20188;-84
2021/04/11 12:41:22;;;;;;;3.78;2.20;;;22.00;41.40;;;;;;4952061;29;20206;-86
2021/04/11 12:43:53;;;;;;;3.42;1.95;;;21.90;40.20;;;;;;4955189;29;20222;-85
2021/04/11 12:46:39;;;;;;;7.28;2.20;;;21.90;39.80;;;;;;4956235;29;20250;-86
2021/04/11 12:49:42;;;;;;;4.90;2.75;;;21.80;40.60;;;;;;4954687;29;20193;-85
2021/04/11 12:52:26;;;;;;;5.60;2.33;;;21.60;41.30;;;;;;4954484;29;20207;-84
2021/04/11 12:55:27;;;;;;;3.65;2.25;;;21.50;41.60;;;;;;4954908;29;20191;-86
2021/04/11 12:58:09;;;;;;;10.75;2.97;;;21.60;41.40;;;;;;4955907;28;20198;-88
2021/04/11 13:00:40;;;;;;;7.50;2.67;;;21.70;41.00;;;;;;4954661;29;20302;-85
2021/04/11 13:03:20;;;;;;;4.20;2.60;;;21.60;41.40;;;;;;4956106;28;20187;-83
2021/04/11 13:05:56;;;;;;;7.63;2.75;;;21.40;41.30;;;;;;4954940;29;20206;-85
2021/04/11 13:08:22;;;;;;;4.10;2.35;;;21.30;41.50;;;;;;4954839;29;20182;-86
2021/04/11 13:10:56;;;;;;;5.43;2.72;;;21.40;42.70;;;;;;4955765;29;20235;-86
2021/04/11 13:13:51;;;;;;;4.78;2.63;;;21.70;41.00;;;;;;4955079;29;20338;-84
2021/04/11 13:16:46;;;;;;;4.28;2.20;;;22.00;41.60;;;;;;4931944;29;20604;-86
2021/04/11 13:19:25;;;;;;;6.78;2.25;;;22.10;40.50;;;;;;4950228;29;20191;-84
2021/04/11 13:21:53;;;;;;;4.90;1.92;;;21.90;40.10;;;;;;4952915;29;20191;-84
2021/04/11 13:24:26;;;;;;;10.82;2.42;;;21.80;39.70;;;;;;4952567;29;20796;-84
2021/04/11 13:27:21;;;;;;;4.78;2.53;;;21.70;41.00;;;;;;4952625;28;20222;-84
2021/04/11 13:29:59;;;;;;;4.07;2.40;;;21.60;40.60;;;;;;4953775;29;20175;-85
2021/04/11 13:32:34;;;;;;;7.43;2.38;;;21.50;40.10;;;;;;4950727;29;20219;-85
2021/04/11 13:35:21;;;;;;;5.70;2.45;;;21.30;40.60;;;;;;4952795;29;20190;-87
2021/04/11 13:38:00;;;;;;;4.78;2.03;;;21.40;41.00;;;;;;4952078;29;20392;-88
2021/04/11 13:40:29;;;;;;;5.32;2.20;;;21.40;40.90;;;;;;4953914;28;20175;-85
2021/04/11 13:43:14;;;;;;;3.63;2.10;;;21.70;41.10;;;;;;4953238;28;20286;-84
2021/04/11 13:45:51;;;;;;;6.07;2.30;;;22.20;40.20;;;;;;4952568;28;20183;-85
2021/04/11 13:48:25;;;;;;;4.03;1.92;;;22.70;40.30;;;;;;4953156;29;20175;-85
2021/04/11 13:51:00;;;;;;;6.78;2.20;;;22.90;39.30;;;;;;4952177;29;20591;-85
2021/04/11 13:53:36;;;;;;;4.15;2.30;;;22.90;38.60;;;;;;4954908;28;20203;-85
2021/04/11 13:56:45;;;;;;;4.45;2.33;;;22.70;38.40;;;;;;4954910;28;20188;-85
2021/04/11 13:59:29;;;;;;;5.50;2.15;;;22.20;39.10;;;;;;4954900;28;20235;-85